sensor_id;sensor_type;location;lat;lon;timestamp;P1;P4;P2;P0;N10;N4;N25;N1;N05;TS
72225;SPS30;60130;52.250;5.048;2023-07-13T00:00:00;3.14;;2.63;;;;;;;
72225;SPS30;60130;52.250;5.048;2023-07-13T00:05:00;2.61;;2.19;;;;;;;
72225;SPS30;60130;52.250;5.048;2023-07-13T00:10:00;3.68;;2.94;;;;;;;
72225;SPS30;60130;52.250;5.048;2023-07-13T00:15:01;3.26;;2.70;;;;;;;
72225;SPS30;60130;52.250;5.048;2023-07-13T00:20:00;2.93;;2.40;;;;;;;
72225;SPS30;60130;52.250;5.048;2023-07-13T00:25:00;3.07;;2.59;;;;;;;
72225;SPS30;60130;52.250;5.048;2023-07-13T00:30:00;2.73;;2.34;;;;;;;
72225;SPS30;60130;52.250;5.048;2023-07-13T00:35:00;2.83;;2.50;;;;;;;
72225;SPS30;60130;52.250;5.048;2023-07-13T00:40:02;3.54;;3.10;;;;;;;
72225;SPS30;60130;52.250;5.048;2023-07-13T00:45:00;3.04;;2.64;;;;;;;
72225;SPS30;60130;52.250;5.048;2023-07-13T00:50:00;3.96;;3.39;;;;;;;
72225;SPS30;60130;52.250;5.048;2023-07-13T00:55:08;3.31;;2.85;;;;;;;
72225;SPS30;60130;52.250;5.048;2023-07-13T01:00:00;3.89;;3.35;;;;;;;
72225;SPS30;60130;52.250;5.048;2023-07-13T01:05:00;2.96;;2.63;;;;;;;
72225;SPS30;60130;52.250;5.048;2023-07-13T01:10:00;2.61;;2.40;;;;;;;
72225;SPS30;60130;52.250;5.048;2023-07-13T01:15:00;2.80;;2.61;;;;;;;
72225;SPS30;60130;52.250;5.048;2023-07-13T01:20:00;2.99;;2.69;;;;;;;
72225;SPS30;60130;52.250;5.048;2023-07-13T01:25:00;4.06;;3.51;;;;;;;
72225;SPS30;60130;52.250;5.048;2023-07-13T01:30:00;3.09;;2.74;;;;;;;
72225;SPS30;60130;52.250;5.048;2023-07-13T01:35:00;4.01;;3.62;;;;;;;
72225;SPS30;60130;52.250;5.048;2023-07-13T01:40:00;3.09;;2.77;;;;;;;
72225;SPS30;60130;52.250;5.048;2023-07-13T01:45:00;3.69;;3.31;;;;;;;
72225;SPS30;60130;52.250;5.048;2023-07-13T01:50:06;3.07;;2.67;;;;;;;
72225;SPS30;60130;52.250;5.048;2023-07-13T01:55:00;3.63;;3.08;;;;;;;
72225;SPS30;60130;52.250;5.048;2023-07-13T02:00:02;2.76;;2.48;;;;;;;
72225;SPS30;60130;52.250;5.048;2023-07-13T02:05:00;2.13;;1.92;;;;;;;
72225;SPS30;60130;52.250;5.048;2023-07-13T02:10:00;2.30;;2.11;;;;;;;
72225;SPS30;60130;52.250;5.048;2023-07-13T02:15:00;2.32;;2.12;;;;;;;
72225;SPS30;60130;52.250;5.048;2023-07-13T02:20:00;2.77;;2.55;;;;;;;
72225;SPS30;60130;52.250;5.048;2023-07-13T02:25:00;3.46;;3.03;;;;;;;
72225;SPS30;60130;52.250;5.048;2023-07-13T02:30:00;3.08;;2.72;;;;;;;
72225;SPS30;60130;52.250;5.048;2023-07-13T02:35:00;3.25;;2.99;;;;;;;
72225;SPS30;60130;52.250;5.048;2023-07-13T02:40:00;2.90;;2.61;;;;;;;
72225;SPS30;60130;52.250;5.048;2023-07-13T02:45:00;3.21;;2.90;;;;;;;
72225;SPS30;60130;52.250;5.048;2023-07-13T02:50:00;2.78;;2.56;;;;;;;
72225;SPS30;60130;52.250;5.048;2023-07-13T02:55:00;2.38;;2.23;;;;;;;
72225;SPS30;60130;52.250;5.048;2023-07-13T03:00:00;2.44;;2.20;;;;;;;
72225;SPS30;60130;52.250;5.048;2023-07-13T03:05:00;2.40;;2.12;;;;;;;
72225;SPS30;60130;52.250;5.048;2023-07-13T03:10:00;1.79;;1.58;;;;;;;
72225;SPS30;60130;52.250;5.048;2023-07-13T03:15:00;2.16;;1.92;;;;;;;
72225;SPS30;60130;52.250;5.048;2023-07-13T03:20:00;2.51;;2.24;;;;;;;
72225;SPS30;60130;52.250;5.048;2023-07-13T03:25:00;1.82;;1.64;;;;;;;
72225;SPS30;60130;52.250;5.048;2023-07-13T03:30:00;1.54;;1.38;;;;;;;
72225;SPS30;60130;52.250;5.048;2023-07-13T03:35:00;1.79;;1.61;;;;;;;
72225;SPS30;60130;52.250;5.048;2023-07-13T03:40:00;1.36;;1.21;;;;;;;
72225;SPS30;60130;52.250;5.048;2023-07-13T03:45:00;1.50;;1.34;;;;;;;
72225;SPS30;60130;52.250;5.048;2023-07-13T03:50:01;1.47;;1.32;;;;;;;
72225;SPS30;60130;52.250;5.048;2023-07-13T03:55:00;1.91;;1.71;;;;;;;
72225;SPS30;60130;52.250;5.048;2023-07-13T04:00:00;1.91;;1.73;;;;;;;
72225;SPS30;60130;52.250;5.048;2023-07-13T04:05:00;1.62;;1.47;;;;;;;
72225;SPS30;60130;52.250;5.048;2023-07-13T04:10:00;2.07;;1.87;;;;;;;
72225;SPS30;60130;52.250;5.048;2023-07-13T04:15:00;1.71;;1.59;;;;;;;
72225;SPS30;60130;52.250;5.048;2023-07-13T04:20:00;2.25;;2.11;;;;;;;
72225;SPS30;60130;52.250;5.048;2023-07-13T04:25:00;2.00;;1.82;;;;;;;
72225;SPS30;60130;52.250;5.048;2023-07-13T04:30:00;1.56;;1.41;;;;;;;
72225;SPS30;60130;52.250;5.048;2023-07-13T04:35:00;2.59;;2.36;;;;;;;
72225;SPS30;60130;52.250;5.048;2023-07-13T04:40:00;1.55;;1.43;;;;;;;
72225;SPS30;60130;52.250;5.048;2023-07-13T04:45:00;2.26;;2.09;;;;;;;
72225;SPS30;60130;52.250;5.048;2023-07-13T04:50:00;2.28;;2.05;;;;;;;
72225;SPS30;60130;52.250;5.048;2023-07-13T04:55:00;3.05;;2.67;;;;;;;
72225;SPS30;60130;52.250;5.048;2023-07-13T05:00:03;2.86;;2.54;;;;;;;
72225;SPS30;60130;52.250;5.048;2023-07-13T05:05:00;2.49;;2.20;;;;;;;
72225;SPS30;60130;52.250;5.048;2023-07-13T05:10:00;2.54;;2.24;;;;;;;
72225;SPS30;60130;52.250;5.048;2023-07-13T05:15:00;3.54;;3.10;;;;;;;
72225;SPS30;60130;52.250;5.048;2023-07-13T05:20:00;2.65;;2.37;;;;;;;
72225;SPS30;60130;52.250;5.048;2023-07-13T05:25:00;3.10;;2.84;;;;;;;
72225;SPS30;60130;52.250;5.048;2023-07-13T05:30:00;3.04;;2.69;;;;;;;
72225;SPS30;60130;52.250;5.048;2023-07-13T05:35:00;3.95;;3.59;;;;;;;
72225;SPS30;60130;52.250;5.048;2023-07-13T05:40:00;2.77;;2.60;;;;;;;
72225;SPS30;60130;52.250;5.048;2023-07-13T05:45:00;3.52;;3.20;;;;;;;
72225;SPS30;60130;52.250;5.048;2023-07-13T05:50:00;3.29;;3.06;;;;;;;
72225;SPS30;60130;52.250;5.048;2023-07-13T05:55:00;3.05;;2.86;;;;;;;
72225;SPS30;60130;52.250;5.048;2023-07-13T06:00:00;3.34;;3.15;;;;;;;
72225;SPS30;60130;52.250;5.048;2023-07-13T06:05:00;2.14;;1.98;;;;;;;
72225;SPS30;60130;52.250;5.048;2023-07-13T06:10:00;2.11;;2.01;;;;;;;
72225;SPS30;60130;52.250;5.048;2023-07-13T06:15:00;2.60;;2.46;;;;;;;
72225;SPS30;60130;52.250;5.048;2023-07-13T06:20:00;3.46;;3.18;;;;;;;
72225;SPS30;60130;52.250;5.048;2023-07-13T06:25:01;3.21;;2.90;;;;;;;
72225;SPS30;60130;52.250;5.048;2023-07-13T06:30:00;2.36;;2.22;;;;;;;
72225;SPS30;60130;52.250;5.048;2023-07-13T06:35:05;2.42;;2.30;;;;;;;
72225;SPS30;60130;52.250;5.048;2023-07-13T06:40:00;2.69;;2.48;;;;;;;
72225;SPS30;60130;52.250;5.048;2023-07-13T06:45:00;2.37;;2.27;;;;;;;
72225;SPS30;60130;52.250;5.048;2023-07-13T06:50:00;2.28;;2.23;;;;;;;
72225;SPS30;60130;52.250;5.048;2023-07-13T06:55:00;2.17;;2.09;;;;;;;
72225;SPS30;60130;52.250;5.048;2023-07-13T07:00:01;1.84;;1.73;;;;;;;
72225;SPS30;60130;52.250;5.048;2023-07-13T07:05:00;2.11;;2.05;;;;;;;
72225;SPS30;60130;52.250;5.048;2023-07-13T07:10:00;2.84;;2.70;;;;;;;
72225;SPS30;60130;52.250;5.048;2023-07-13T07:15:04;2.24;;2.15;;;;;;;
72225;SPS30;60130;52.250;5.048;2023-07-13T07:20:00;1.97;;1.93;;;;;;;
72225;SPS30;60130;52.250;5.048;2023-07-13T07:25:00;2.70;;2.70;;;;;;;
72225;SPS30;60130;52.250;5.048;2023-07-13T07:30:00;1.56;;1.56;;;;;;;
72225;SPS30;60130;52.250;5.048;2023-07-13T07:35:00;1.36;;1.36;;;;;;;
72225;SPS30;60130;52.250;5.048;2023-07-13T07:40:00;2.02;;2.02;;;;;;;
72225;SPS30;60130;52.250;5.048;2023-07-13T07:45:00;1.33;;1.33;;;;;;;
72225;SPS30;60130;52.250;5.048;2023-07-13T07:50:00;1.62;;1.62;;;;;;;
72225;SPS30;60130;52.250;5.048;2023-07-13T07:55:00;1.62;;1.59;;;;;;;
72225;SPS30;60130;52.250;5.048;2023-07-13T08:00:00;1.44;;1.41;;;;;;;
72225;SPS30;60130;52.250;5.048;2023-07-13T08:05:00;1.69;;1.69;;;;;;;
72225;SPS30;60130;52.250;5.048;2023-07-13T08:10:00;1.45;;1.43;;;;;;;
72225;SPS30;60130;52.250;5.048;2023-07-13T08:15:00;1.52;;1.52;;;;;;;
72225;SPS30;60130;52.250;5.048;2023-07-13T08:20:00;1.55;;1.55;;;;;;;
72225;SPS30;60130;52.250;5.048;2023-07-13T08:25:00;1.71;;1.71;;;;;;;
72225;SPS30;60130;52.250;5.048;2023-07-13T08:30:05;1.67;;1.66;;;;;;;
72225;SPS30;60130;52.250;5.048;2023-07-13T08:35:00;1.85;;1.85;;;;;;;
72225;SPS30;60130;52.250;5.048;2023-07-13T08:40:00;1.50;;1.50;;;;;;;
72225;SPS30;60130;52.250;5.048;2023-07-13T08:45:03;2.15;;2.15;;;;;;;
72225;SPS30;60130;52.250;5.048;2023-07-13T08:50:00;1.59;;1.59;;;;;;;
72225;SPS30;60130;52.250;5.048;2023-07-13T08:55:02;1.29;;1.29;;;;;;;
72225;SPS30;60130;52.250;5.048;2023-07-13T09:00:00;1.58;;1.57;;;;;;;
72225;SPS30;60130;52.250;5.048;2023-07-13T09:05:01;1.21;;1.20;;;;;;;
72225;SPS30;60130;52.250;5.048;2023-07-13T09:10:13;1.41;;1.41;;;;;;;
72225;SPS30;60130;52.250;5.048;2023-07-13T09:15:00;1.85;;1.85;;;;;;;
72225;SPS30;60130;52.250;5.048;2023-07-13T09:20:00;1.84;;1.84;;;;;;;
72225;SPS30;60130;52.250;5.048;2023-07-13T09:25:02;1.70;;1.70;;;;;;;
72225;SPS30;60130;52.250;5.048;2023-07-13T09:30:02;1.79;;1.79;;;;;;;
72225;SPS30;60130;52.250;5.048;2023-07-13T09:35:00;1.72;;1.72;;;;;;;
72225;SPS30;60130;52.250;5.048;2023-07-13T09:40:01;1.28;;1.28;;;;;;;
72225;SPS30;60130;52.250;5.048;2023-07-13T09:45:01;2.09;;2.09;;;;;;;
72225;SPS30;60130;52.250;5.048;2023-07-13T09:50:01;1.74;;1.74;;;;;;;
72225;SPS30;60130;52.250;5.048;2023-07-13T09:55:00;1.82;;1.82;;;;;;;
72225;SPS30;60130;52.250;5.048;2023-07-13T10:00:00;1.68;;1.67;;;;;;;
72225;SPS30;60130;52.250;5.048;2023-07-13T10:05:01;1.72;;1.71;;;;;;;
72225;SPS30;60130;52.250;5.048;2023-07-13T10:10:00;1.58;;1.57;;;;;;;
72225;SPS30;60130;52.250;5.048;2023-07-13T10:15:00;1.48;;1.48;;;;;;;
72225;SPS30;60130;52.250;5.048;2023-07-13T10:20:01;1.55;;1.55;;;;;;;
72225;SPS30;60130;52.250;5.048;2023-07-13T10:25:00;1.78;;1.78;;;;;;;
72225;SPS30;60130;52.250;5.048;2023-07-13T10:30:01;1.89;;1.89;;;;;;;
72225;SPS30;60130;52.250;5.048;2023-07-13T10:35:00;1.85;;1.85;;;;;;;
72225;SPS30;60130;52.250;5.048;2023-07-13T10:40:00;1.84;;1.82;;;;;;;
72225;SPS30;60130;52.250;5.048;2023-07-13T10:45:00;1.60;;1.59;;;;;;;
72225;SPS30;60130;52.250;5.048;2023-07-13T10:50:00;1.79;;1.79;;;;;;;
72225;SPS30;60130;52.250;5.048;2023-07-13T10:55:01;1.36;;1.36;;;;;;;
72225;SPS30;60130;52.250;5.048;2023-07-13T11:05:01;2.40;;2.40;;;;;;;
72225;SPS30;60130;52.250;5.048;2023-07-13T11:10:03;1.95;;1.95;;;;;;;
72225;SPS30;60130;52.250;5.048;2023-07-13T11:15:02;1.59;;1.59;;;;;;;
72225;SPS30;60130;52.250;5.048;2023-07-13T11:20:08;1.66;;1.66;;;;;;;
72225;SPS30;60130;52.250;5.048;2023-07-13T11:25:01;1.51;;1.50;;;;;;;
72225;SPS30;60130;52.250;5.048;2023-07-13T11:35:00;1.57;;1.56;;;;;;;
72225;SPS30;60130;52.250;5.048;2023-07-13T11:40:00;1.63;;1.63;;;;;;;
72225;SPS30;60130;52.250;5.048;2023-07-13T11:45:00;1.72;;1.72;;;;;;;
72225;SPS30;60130;52.250;5.048;2023-07-13T11:50:00;1.99;;1.99;;;;;;;
72225;SPS30;60130;52.250;5.048;2023-07-13T11:55:00;1.94;;1.94;;;;;;;
72225;SPS30;60130;52.250;5.048;2023-07-13T12:00:00;1.66;;1.66;;;;;;;
72225;SPS30;60130;52.250;5.048;2023-07-13T12:05:00;1.66;;1.66;;;;;;;
72225;SPS30;60130;52.250;5.048;2023-07-13T12:10:01;2.10;;2.08;;;;;;;
72225;SPS30;60130;52.250;5.048;2023-07-13T12:15:00;1.65;;1.65;;;;;;;
72225;SPS30;60130;52.250;5.048;2023-07-13T12:20:00;1.58;;1.58;;;;;;;
72225;SPS30;60130;52.250;5.048;2023-07-13T12:25:00;1.71;;1.71;;;;;;;
72225;SPS30;60130;52.250;5.048;2023-07-13T12:30:01;1.41;;1.41;;;;;;;
72225;SPS30;60130;52.250;5.048;2023-07-13T12:35:06;1.64;;1.64;;;;;;;
72225;SPS30;60130;52.250;5.048;2023-07-13T12:40:00;1.48;;1.48;;;;;;;
72225;SPS30;60130;52.250;5.048;2023-07-13T12:45:11;2.03;;2.03;;;;;;;
72225;SPS30;60130;52.250;5.048;2023-07-13T12:50:03;1.75;;1.75;;;;;;;
72225;SPS30;60130;52.250;5.048;2023-07-13T12:55:04;1.72;;1.72;;;;;;;
72225;SPS30;60130;52.250;5.048;2023-07-13T13:00:00;2.26;;2.26;;;;;;;
72225;SPS30;60130;52.250;5.048;2023-07-13T13:05:00;2.25;;2.25;;;;;;;
72225;SPS30;60130;52.250;5.048;2023-07-13T13:10:00;1.89;;1.89;;;;;;;
72225;SPS30;60130;52.250;5.048;2023-07-13T13:15:00;1.96;;1.96;;;;;;;
72225;SPS30;60130;52.250;5.048;2023-07-13T13:20:00;1.72;;1.72;;;;;;;
72225;SPS30;60130;52.250;5.048;2023-07-13T13:25:00;1.83;;1.83;;;;;;;
72225;SPS30;60130;52.250;5.048;2023-07-13T13:30:00;2.21;;2.21;;;;;;;
72225;SPS30;60130;52.250;5.048;2023-07-13T13:35:00;2.28;;2.28;;;;;;;
72225;SPS30;60130;52.250;5.048;2023-07-13T13:40:00;1.74;;1.74;;;;;;;
72225;SPS30;60130;52.250;5.048;2023-07-13T13:45:00;1.58;;1.58;;;;;;;
72225;SPS30;60130;52.250;5.048;2023-07-13T13:50:00;1.48;;1.48;;;;;;;
72225;SPS30;60130;52.250;5.048;2023-07-13T13:55:00;1.90;;1.90;;;;;;;
72225;SPS30;60130;52.250;5.048;2023-07-13T14:00:00;1.74;;1.74;;;;;;;
72225;SPS30;60130;52.250;5.048;2023-07-13T14:05:01;1.52;;1.52;;;;;;;
72225;SPS30;60130;52.250;5.048;2023-07-13T14:10:00;1.92;;1.92;;;;;;;
72225;SPS30;60130;52.250;5.048;2023-07-13T14:15:00;2.24;;2.24;;;;;;;
72225;SPS30;60130;52.250;5.048;2023-07-13T14:20:00;1.73;;1.73;;;;;;;
72225;SPS30;60130;52.250;5.048;2023-07-13T14:25:00;1.70;;1.70;;;;;;;
72225;SPS30;60130;52.250;5.048;2023-07-13T14:30:00;2.01;;1.99;;;;;;;
72225;SPS30;60130;52.250;5.048;2023-07-13T14:35:00;1.67;;1.64;;;;;;;
72225;SPS30;60130;52.250;5.048;2023-07-13T14:40:00;1.37;;1.37;;;;;;;
72225;SPS30;60130;52.250;5.048;2023-07-13T14:45:00;1.40;;1.40;;;;;;;
72225;SPS30;60130;52.250;5.048;2023-07-13T14:50:00;1.45;;1.45;;;;;;;
72225;SPS30;60130;52.250;5.048;2023-07-13T14:55:01;1.18;;1.18;;;;;;;
72225;SPS30;60130;52.250;5.048;2023-07-13T15:00:00;0.92;;0.92;;;;;;;
72225;SPS30;60130;52.250;5.048;2023-07-13T15:05:00;1.24;;1.24;;;;;;;
72225;SPS30;60130;52.250;5.048;2023-07-13T15:10:00;1.18;;1.18;;;;;;;
72225;SPS30;60130;52.250;5.048;2023-07-13T15:15:00;1.06;;1.06;;;;;;;
72225;SPS30;60130;52.250;5.048;2023-07-13T15:20:00;1.43;;1.43;;;;;;;
72225;SPS30;60130;52.250;5.048;2023-07-13T15:25:07;1.72;;1.72;;;;;;;
72225;SPS30;60130;52.250;5.048;2023-07-13T15:30:00;1.39;;1.38;;;;;;;
72225;SPS30;60130;52.250;5.048;2023-07-13T15:35:00;1.52;;1.50;;;;;;;
72225;SPS30;60130;52.250;5.048;2023-07-13T15:40:00;1.48;;1.48;;;;;;;
72225;SPS30;60130;52.250;5.048;2023-07-13T15:45:00;1.43;;1.42;;;;;;;
72225;SPS30;60130;52.250;5.048;2023-07-13T15:50:00;1.55;;1.53;;;;;;;
72225;SPS30;60130;52.250;5.048;2023-07-13T15:55:00;1.22;;1.21;;;;;;;
72225;SPS30;60130;52.250;5.048;2023-07-13T16:00:00;1.35;;1.35;;;;;;;
72225;SPS30;60130;52.250;5.048;2023-07-13T16:05:00;1.45;;1.45;;;;;;;
72225;SPS30;60130;52.250;5.048;2023-07-13T16:10:00;1.42;;1.42;;;;;;;
72225;SPS30;60130;52.250;5.048;2023-07-13T16:15:00;1.35;;1.35;;;;;;;
72225;SPS30;60130;52.250;5.048;2023-07-13T16:20:00;1.46;;1.46;;;;;;;
72225;SPS30;60130;52.250;5.048;2023-07-13T16:25:00;1.16;;1.16;;;;;;;
72225;SPS30;60130;52.250;5.048;2023-07-13T16:30:00;0.85;;0.85;;;;;;;
72225;SPS30;60130;52.250;5.048;2023-07-13T16:35:00;1.34;;1.34;;;;;;;
72225;SPS30;60130;52.250;5.048;2023-07-13T16:40:00;1.20;;1.20;;;;;;;
72225;SPS30;60130;52.250;5.048;2023-07-13T16:45:00;1.26;;1.26;;;;;;;
72225;SPS30;60130;52.250;5.048;2023-07-13T16:50:00;1.20;;1.19;;;;;;;
72225;SPS30;60130;52.250;5.048;2023-07-13T16:55:00;1.27;;1.27;;;;;;;
72225;SPS30;60130;52.250;5.048;2023-07-13T17:00:00;1.01;;1.01;;;;;;;
72225;SPS30;60130;52.250;5.048;2023-07-13T17:05:00;1.43;;1.43;;;;;;;
72225;SPS30;60130;52.250;5.048;2023-07-13T17:10:00;1.09;;1.09;;;;;;;
72225;SPS30;60130;52.250;5.048;2023-07-13T17:15:00;1.36;;1.36;;;;;;;
72225;SPS30;60130;52.250;5.048;2023-07-13T17:20:00;1.25;;1.25;;;;;;;
72225;SPS30;60130;52.250;5.048;2023-07-13T17:25:00;1.75;;1.75;;;;;;;
72225;SPS30;60130;52.250;5.048;2023-07-13T17:30:00;1.75;;1.75;;;;;;;
72225;SPS30;60130;52.250;5.048;2023-07-13T17:35:16;1.43;;1.43;;;;;;;
72225;SPS30;60130;52.250;5.048;2023-07-13T17:40:00;1.76;;1.76;;;;;;;
72225;SPS30;60130;52.250;5.048;2023-07-13T17:45:00;1.68;;1.68;;;;;;;
72225;SPS30;60130;52.250;5.048;2023-07-13T17:50:00;1.38;;1.38;;;;;;;
72225;SPS30;60130;52.250;5.048;2023-07-13T17:55:00;1.56;;1.56;;;;;;;
72225;SPS30;60130;52.250;5.048;2023-07-13T18:00:00;1.27;;1.27;;;;;;;
72225;SPS30;60130;52.250;5.048;2023-07-13T18:05:00;1.55;;1.55;;;;;;;
72225;SPS30;60130;52.250;5.048;2023-07-13T18:10:00;1.54;;1.52;;;;;;;
72225;SPS30;60130;52.250;5.048;2023-07-13T18:15:00;1.30;;1.30;;;;;;;
72225;SPS30;60130;52.250;5.048;2023-07-13T18:20:00;1.07;;1.07;;;;;;;
72225;SPS30;60130;52.250;5.048;2023-07-13T18:25:00;1.42;;1.42;;;;;;;
72225;SPS30;60130;52.250;5.048;2023-07-13T18:30:00;1.23;;1.23;;;;;;;
72225;SPS30;60130;52.250;5.048;2023-07-13T18:35:00;1.09;;1.09;;;;;;;
72225;SPS30;60130;52.250;5.048;2023-07-13T18:40:00;1.07;;1.07;;;;;;;
72225;SPS30;60130;52.250;5.048;2023-07-13T18:45:00;1.22;;1.21;;;;;;;
72225;SPS30;60130;52.250;5.048;2023-07-13T18:50:00;1.64;;1.61;;;;;;;
72225;SPS30;60130;52.250;5.048;2023-07-13T18:55:00;1.17;;1.17;;;;;;;
72225;SPS30;60130;52.250;5.048;2023-07-13T19:00:00;1.23;;1.23;;;;;;;
72225;SPS30;60130;52.250;5.048;2023-07-13T19:05:00;1.16;;1.13;;;;;;;
72225;SPS30;60130;52.250;5.048;2023-07-13T19:10:00;1.51;;1.49;;;;;;;
72225;SPS30;60130;52.250;5.048;2023-07-13T19:15:00;1.72;;1.71;;;;;;;
72225;SPS30;60130;52.250;5.048;2023-07-13T19:20:00;1.28;;1.26;;;;;;;
72225;SPS30;60130;52.250;5.048;2023-07-13T19:25:00;1.72;;1.67;;;;;;;
72225;SPS30;60130;52.250;5.048;2023-07-13T19:30:00;2.29;;2.28;;;;;;;
72225;SPS30;60130;52.250;5.048;2023-07-13T19:35:00;1.89;;1.89;;;;;;;
72225;SPS30;60130;52.250;5.048;2023-07-13T19:40:00;1.25;;1.25;;;;;;;
72225;SPS30;60130;52.250;5.048;2023-07-13T19:45:00;1.73;;1.70;;;;;;;
72225;SPS30;60130;52.250;5.048;2023-07-13T19:50:00;1.39;;1.37;;;;;;;
72225;SPS30;60130;52.250;5.048;2023-07-13T19:55:00;1.37;;1.37;;;;;;;
72225;SPS30;60130;52.250;5.048;2023-07-13T20:00:00;1.69;;1.69;;;;;;;
72225;SPS30;60130;52.250;5.048;2023-07-13T20:05:00;1.52;;1.51;;;;;;;
72225;SPS30;60130;52.250;5.048;2023-07-13T20:10:00;1.13;;1.13;;;;;;;
72225;SPS30;60130;52.250;5.048;2023-07-13T20:15:00;1.76;;1.74;;;;;;;
72225;SPS30;60130;52.250;5.048;2023-07-13T20:20:00;1.73;;1.73;;;;;;;
72225;SPS30;60130;52.250;5.048;2023-07-13T20:25:00;1.58;;1.58;;;;;;;
72225;SPS30;60130;52.250;5.048;2023-07-13T20:30:00;2.02;;2.02;;;;;;;
72225;SPS30;60130;52.250;5.048;2023-07-13T20:35:00;1.77;;1.77;;;;;;;
72225;SPS30;60130;52.250;5.048;2023-07-13T20:40:00;2.06;;2.06;;;;;;;
72225;SPS30;60130;52.250;5.048;2023-07-13T20:45:00;2.27;;2.25;;;;;;;
72225;SPS30;60130;52.250;5.048;2023-07-13T20:50:00;2.28;;2.24;;;;;;;
72225;SPS30;60130;52.250;5.048;2023-07-13T20:55:00;1.93;;1.93;;;;;;;
72225;SPS30;60130;52.250;5.048;2023-07-13T21:00:00;1.79;;1.76;;;;;;;
72225;SPS30;60130;52.250;5.048;2023-07-13T21:05:08;3.04;;3.04;;;;;;;
72225;SPS30;60130;52.250;5.048;2023-07-13T21:10:00;1.87;;1.87;;;;;;;
72225;SPS30;60130;52.250;5.048;2023-07-13T21:15:02;2.39;;2.37;;;;;;;
72225;SPS30;60130;52.250;5.048;2023-07-13T21:20:05;2.17;;2.17;;;;;;;
72225;SPS30;60130;52.250;5.048;2023-07-13T21:25:00;2.11;;2.11;;;;;;;
72225;SPS30;60130;52.250;5.048;2023-07-13T21:30:00;2.11;;2.11;;;;;;;
72225;SPS30;60130;52.250;5.048;2023-07-13T21:35:04;1.49;;1.47;;;;;;;
72225;SPS30;60130;52.250;5.048;2023-07-13T21:40:00;2.17;;2.17;;;;;;;
72225;SPS30;60130;52.250;5.048;2023-07-13T21:45:00;2.16;;2.16;;;;;;;
72225;SPS30;60130;52.250;5.048;2023-07-13T21:50:00;2.01;;1.99;;;;;;;
72225;SPS30;60130;52.250;5.048;2023-07-13T21:55:00;1.48;;1.48;;;;;;;
72225;SPS30;60130;52.250;5.048;2023-07-13T22:00:00;1.82;;1.82;;;;;;;
72225;SPS30;60130;52.250;5.048;2023-07-13T22:05:00;1.84;;1.77;;;;;;;
72225;SPS30;60130;52.250;5.048;2023-07-13T22:10:00;1.95;;1.89;;;;;;;
72225;SPS30;60130;52.250;5.048;2023-07-13T22:15:00;1.79;;1.73;;;;;;;
72225;SPS30;60130;52.250;5.048;2023-07-13T22:20:01;1.57;;1.53;;;;;;;
72225;SPS30;60130;52.250;5.048;2023-07-13T22:25:00;1.72;;1.67;;;;;;;
72225;SPS30;60130;52.250;5.048;2023-07-13T22:30:00;2.20;;2.13;;;;;;;
72225;SPS30;60130;52.250;5.048;2023-07-13T22:35:00;1.31;;1.26;;;;;;;
72225;SPS30;60130;52.250;5.048;2023-07-13T22:40:00;2.42;;2.36;;;;;;;
72225;SPS30;60130;52.250;5.048;2023-07-13T22:45:00;1.61;;1.55;;;;;;;
72225;SPS30;60130;52.250;5.048;2023-07-13T22:50:00;1.64;;1.60;;;;;;;
72225;SPS30;60130;52.250;5.048;2023-07-13T22:55:04;1.75;;1.72;;;;;;;
72225;SPS30;60130;52.250;5.048;2023-07-13T23:00:00;1.81;;1.80;;;;;;;
72225;SPS30;60130;52.250;5.048;2023-07-13T23:05:00;1.48;;1.47;;;;;;;
72225;SPS30;60130;52.250;5.048;2023-07-13T23:10:00;1.48;;1.44;;;;;;;
72225;SPS30;60130;52.250;5.048;2023-07-13T23:15:00;1.89;;1.82;;;;;;;
72225;SPS30;60130;52.250;5.048;2023-07-13T23:20:00;1.87;;1.80;;;;;;;
72225;SPS30;60130;52.250;5.048;2023-07-13T23:25:00;1.48;;1.40;;;;;;;
72225;SPS30;60130;52.250;5.048;2023-07-13T23:30:00;2.12;;2.00;;;;;;;
72225;SPS30;60130;52.250;5.048;2023-07-13T23:35:09;1.80;;1.72;;;;;;;
72225;SPS30;60130;52.250;5.048;2023-07-13T23:40:00;1.69;;1.63;;;;;;;
72225;SPS30;60130;52.250;5.048;2023-07-13T23:45:00;1.62;;1.56;;;;;;;
72225;SPS30;60130;52.250;5.048;2023-07-13T23:50:00;1.66;;1.60;;;;;;;
72225;SPS30;60130;52.250;5.048;2023-07-13T23:55:00;1.94;;1.88;;;;;;;
